Terminal Aerodrome Forecast
Issued by NWS

Home | Current Version | Previous Version | Text Only | Print | Product List | Glossary On
Versions: 1 2 3 4 5 6 7 8 9 10 11 12 13 14 15 16 17 18 19 20 21 22 23
475
FTUS45 KCYS 061134 AAA
TAFLAR
TAF AMD
KLAR 061134Z 0612/0712 20008KT P6SM BKN200
     FM061500 12008KT P6SM BKN200
     FM061800 12014KT P6SM VCSH SCT070 BKN150
     FM062100 12013KT P6SM VCTS SCT060CB OVC100
     FM070400 10012KT P6SM -SHRA OVC100
     FM070900 08010KT P6SM VCSH OVC015=

USA.gov is the U.S. government's official web portal to all federal, state and local government web resources and services.